createdAt,value
2022-12-31T00:00:14.980Z,7.27
2022-12-31T00:02:42.241Z,7.31
2022-12-31T00:05:09.929Z,7.34
2022-12-31T00:10:05.273Z,7.39
2022-12-31T00:12:31.950Z,7.39
2022-12-31T00:14:58.655Z,7.42
2022-12-31T00:17:25.328Z,7.44
2022-12-31T00:19:54.274Z,7.47
2022-12-31T00:22:21.004Z,7.50
2022-12-31T00:24:47.693Z,7.53
2022-12-31T00:27:14.419Z,7.58
2022-12-31T00:29:41.354Z,7.60
2022-12-31T00:32:08.127Z,7.61
2022-12-31T00:34:34.718Z,7.64
2022-12-31T00:37:02.483Z,7.67
2022-12-31T00:39:29.187Z,7.67
2022-12-31T00:41:56.501Z,7.69
2022-12-31T00:44:23.300Z,7.68
2022-12-31T00:46:50.100Z,7.70
2022-12-31T00:49:17.112Z,7.74
2022-12-31T00:51:44.044Z,7.76
2022-12-31T00:54:10.753Z,7.78
2022-12-31T00:56:37.342Z,7.80
2022-12-31T00:59:04.356Z,7.80
2022-12-31T01:01:34.772Z,7.79
2022-12-31T01:04:13.426Z,7.79
2022-12-31T01:06:40.972Z,7.80
2022-12-31T01:09:08.642Z,7.80
2022-12-31T01:11:36.100Z,7.82
2022-12-31T01:14:07.012Z,7.81
2022-12-31T01:16:49.469Z,7.83
2022-12-31T01:19:20.203Z,7.83
2022-12-31T01:21:48.567Z,7.85
2022-12-31T01:24:16.134Z,7.85
2022-12-31T01:26:43.319Z,7.85
2022-12-31T01:29:10.537Z,7.85
2022-12-31T01:31:38.191Z,7.85
2022-12-31T01:34:05.613Z,7.84
2022-12-31T01:36:36.177Z,7.85
2022-12-31T01:39:05.706Z,7.85
2022-12-31T01:41:41.025Z,7.85
2022-12-31T01:44:13.738Z,7.85
2022-12-31T01:47:01.087Z,7.85
2022-12-31T01:49:41.016Z,7.84
2022-12-31T01:52:12.176Z,7.84
2022-12-31T01:54:44.698Z,7.81
2022-12-31T01:57:12.793Z,7.79
2022-12-31T01:59:39.670Z,7.78
2022-12-31T02:02:06.589Z,7.77
2022-12-31T02:04:33.440Z,7.76
2022-12-31T02:07:03.728Z,7.74
2022-12-31T02:09:32.544Z,7.74
2022-12-31T02:11:59.730Z,7.72
2022-12-31T02:14:43.854Z,7.69
2022-12-31T02:17:44.246Z,7.66
2022-12-31T02:20:25.910Z,7.63
2022-12-31T02:22:52.480Z,7.60
2022-12-31T02:25:34.353Z,7.54
2022-12-31T02:28:06.662Z,7.51
2022-12-31T02:30:34.875Z,7.49
2022-12-31T02:33:10.620Z,7.44
2022-12-31T02:35:58.672Z,7.37
2022-12-31T02:38:33.121Z,7.28
2022-12-31T02:41:00.989Z,7.25
2022-12-31T02:43:27.839Z,7.23
2022-12-31T02:46:26.009Z,7.24
2022-12-31T02:49:01.710Z,7.22
2022-12-31T02:51:51.818Z,7.18
2022-12-31T02:54:28.716Z,7.14
2022-12-31T02:57:38.041Z,7.12
2022-12-31T03:00:34.322Z,7.14
2022-12-31T03:03:08.902Z,7.14
2022-12-31T03:05:41.697Z,7.14
2022-12-31T03:08:09.337Z,7.12
2022-12-31T03:10:37.007Z,7.11
2022-12-31T03:13:03.842Z,7.12
2022-12-31T03:15:33.747Z,7.10
2022-12-31T03:18:13.317Z,7.11
2022-12-31T03:21:02.975Z,7.12
2022-12-31T03:23:39.513Z,7.12
2022-12-31T03:26:10.685Z,7.08
2022-12-31T03:28:39.390Z,7.07
2022-12-31T03:31:09.456Z,7.06
2022-12-31T03:33:39.339Z,7.08
2022-12-31T03:36:11.891Z,7.08
2022-12-31T03:38:38.598Z,7.06
2022-12-31T03:41:05.739Z,7.05
2022-12-31T03:43:32.480Z,7.07
2022-12-31T03:46:01.541Z,7.09
2022-12-31T03:48:28.730Z,7.12
2022-12-31T03:50:55.683Z,7.14
2022-12-31T03:53:22.316Z,7.12
2022-12-31T03:55:53.437Z,7.12
2022-12-31T03:59:19.938Z,7.12
2022-12-31T04:02:46.622Z,7.14
2022-12-31T04:09:56.087Z,7.13
2022-12-31T04:13:22.523Z,7.07
2022-12-31T04:16:52.221Z,7.06
2022-12-31T04:19:19.081Z,7.05
2022-12-31T04:21:45.754Z,7.05
2022-12-31T04:24:12.556Z,7.08
2022-12-31T04:26:39.761Z,7.09
2022-12-31T04:29:06.331Z,7.05
2022-12-31T04:31:33.322Z,7.03
2022-12-31T04:34:00.080Z,7.01
2022-12-31T04:36:26.989Z,7.02
2022-12-31T04:38:53.685Z,7.05
2022-12-31T04:41:20.895Z,7.07
2022-12-31T04:43:52.812Z,7.10
2022-12-31T04:46:22.135Z,7.11
2022-12-31T04:48:48.783Z,7.13
2022-12-31T04:51:16.226Z,7.13
2022-12-31T04:53:42.965Z,7.14
2022-12-31T04:56:10.605Z,7.16
2022-12-31T04:58:39.465Z,7.15
2022-12-31T05:01:07.146Z,7.17
2022-12-31T05:03:35.162Z,7.18
2022-12-31T05:06:06.675Z,7.20
2022-12-31T05:08:33.987Z,7.19
2022-12-31T05:11:01.048Z,7.19
2022-12-31T05:13:32.957Z,7.21
2022-12-31T05:16:00.326Z,7.21
2022-12-31T05:18:27.004Z,7.23
2022-12-31T05:20:53.799Z,7.23
2022-12-31T05:23:20.760Z,7.21
2022-12-31T05:25:48.104Z,7.25
2022-12-31T05:28:16.277Z,7.24
2022-12-31T05:30:44.378Z,7.23
2022-12-31T05:33:11.100Z,7.23
2022-12-31T05:35:37.748Z,7.22
2022-12-31T05:38:04.559Z,7.20
2022-12-31T05:40:31.226Z,7.21
2022-12-31T05:42:57.967Z,7.22
2022-12-31T05:45:30.427Z,7.21
2022-12-31T05:47:57.792Z,7.24
2022-12-31T05:50:24.590Z,7.22
2022-12-31T05:52:51.504Z,7.21
2022-12-31T05:55:18.139Z,7.21
2022-12-31T05:57:44.744Z,7.21
2022-12-31T06:00:12.099Z,7.21
2022-12-31T06:02:38.891Z,7.19
2022-12-31T06:05:05.842Z,7.12
2022-12-31T06:07:32.938Z,7.12
2022-12-31T06:09:59.690Z,7.13
2022-12-31T06:12:26.437Z,7.14
2022-12-31T06:14:53.153Z,7.17
2022-12-31T06:17:20.662Z,7.18
2022-12-31T06:19:47.330Z,7.18
2022-12-31T06:22:14.132Z,7.18
2022-12-31T06:24:41.003Z,7.16
2022-12-31T06:27:07.621Z,7.19
2022-12-31T06:29:34.329Z,7.20
2022-12-31T06:32:00.950Z,7.22
2022-12-31T06:34:27.578Z,7.23
2022-12-31T06:36:54.373Z,7.23
2022-12-31T06:39:21.240Z,7.24
2022-12-31T06:41:47.879Z,7.25
2022-12-31T06:44:15.045Z,7.26
2022-12-31T06:46:41.877Z,7.28
2022-12-31T06:49:08.665Z,7.29
2022-12-31T06:51:35.466Z,7.29
2022-12-31T06:54:02.683Z,7.30
2022-12-31T06:56:34.353Z,7.33
2022-12-31T06:59:03.483Z,7.33
2022-12-31T07:02:05.615Z,7.33
2022-12-31T07:04:42.718Z,7.32
2022-12-31T07:07:21.708Z,7.32
2022-12-31T07:10:02.686Z,7.32
2022-12-31T07:12:59.174Z,7.33
2022-12-31T07:16:04.620Z,7.31
2022-12-31T07:18:40.453Z,7.29
2022-12-31T07:21:19.412Z,7.28
2022-12-31T07:23:46.362Z,7.26
2022-12-31T07:26:42.833Z,7.24
2022-12-31T07:29:24.633Z,7.25
2022-12-31T07:31:54.225Z,7.26
2022-12-31T07:34:32.686Z,7.27
2022-12-31T07:37:15.562Z,7.30
2022-12-31T07:39:55.935Z,7.30
2022-12-31T07:42:29.737Z,7.28
2022-12-31T07:45:17.967Z,7.26
2022-12-31T07:47:45.073Z,7.25
2022-12-31T07:50:17.522Z,7.25
2022-12-31T07:52:45.060Z,7.20
2022-12-31T07:55:11.965Z,7.14
2022-12-31T07:57:52.417Z,7.17
2022-12-31T08:00:19.476Z,7.13
2022-12-31T08:03:17.153Z,7.12
2022-12-31T08:06:11.057Z,7.13
2022-12-31T08:09:04.786Z,7.11
2022-12-31T08:11:46.251Z,7.11
2022-12-31T08:15:12.748Z,7.12
2022-12-31T08:18:51.298Z,7.11
2022-12-31T08:22:25.057Z,7.08
2022-12-31T08:25:32.641Z,7.05
2022-12-31T08:28:31.192Z,7.04
2022-12-31T08:32:00.626Z,7.05
2022-12-31T08:35:19.532Z,7.08
2022-12-31T08:37:55.168Z,7.06
2022-12-31T08:40:28.635Z,7.04
2022-12-31T08:43:20.764Z,7.03
2022-12-31T08:45:50.119Z,7.06
2022-12-31T08:48:42.832Z,7.05
2022-12-31T08:51:20.331Z,7.04
2022-12-31T08:53:48.418Z,7.02
2022-12-31T08:56:30.502Z,7.01
2022-12-31T08:59:15.709Z,7.01
2022-12-31T09:01:51.318Z,7.04
2022-12-31T09:04:43.783Z,7.05
2022-12-31T09:07:12.117Z,7.07
2022-12-31T09:09:47.505Z,7.07
2022-12-31T09:12:35.898Z,7.09
2022-12-31T09:15:30.672Z,7.09
2022-12-31T09:17:57.867Z,7.11
2022-12-31T09:20:42.377Z,7.14
2022-12-31T09:23:11.227Z,7.17
2022-12-31T09:26:06.445Z,7.22
2022-12-31T09:28:43.272Z,7.25
2022-12-31T09:31:21.893Z,7.27
2022-12-31T09:33:58.002Z,7.27
2022-12-31T09:36:30.942Z,7.30
2022-12-31T09:39:03.985Z,7.30
2022-12-31T09:41:55.733Z,7.32
2022-12-31T09:45:00.004Z,7.34
2022-12-31T09:47:51.519Z,7.36
2022-12-31T09:50:52.695Z,7.39
2022-12-31T09:53:31.413Z,7.43
2022-12-31T09:56:11.837Z,7.44
2022-12-31T09:58:41.217Z,7.48
2022-12-31T10:01:13.546Z,7.49
2022-12-31T10:04:27.955Z,7.53
2022-12-31T10:07:09.770Z,7.54
2022-12-31T10:09:46.238Z,7.58
2022-12-31T10:12:27.286Z,7.60
2022-12-31T10:15:05.936Z,7.61
2022-12-31T10:17:53.812Z,7.63
2022-12-31T10:20:26.450Z,7.65
2022-12-31T10:23:26.553Z,7.66
2022-12-31T10:26:14.121Z,7.68
2022-12-31T10:28:56.174Z,7.71
2022-12-31T10:31:44.649Z,7.76
2022-12-31T10:34:16.137Z,7.82
2022-12-31T10:37:04.135Z,7.89
2022-12-31T10:39:47.580Z,7.93
2022-12-31T10:42:29.649Z,7.98
2022-12-31T10:45:05.066Z,8.00
2022-12-31T10:47:43.706Z,8.00
2022-12-31T10:50:33.619Z,8.04
2022-12-31T10:53:09.586Z,8.07
2022-12-31T10:55:51.443Z,8.08
2022-12-31T10:58:44.321Z,8.10
2022-12-31T11:01:14.272Z,8.13
2022-12-31T11:03:56.302Z,8.16
2022-12-31T11:06:57.147Z,8.18
2022-12-31T11:09:39.091Z,8.23
2022-12-31T11:12:27.629Z,8.27
2022-12-31T11:15:10.217Z,8.31
2022-12-31T11:17:51.941Z,8.34
2022-12-31T11:20:51.674Z,8.36
2022-12-31T11:23:39.758Z,8.39
2022-12-31T11:26:44.915Z,8.41
2022-12-31T11:29:23.461Z,8.40
2022-12-31T11:32:06.224Z,8.41
2022-12-31T11:34:58.737Z,8.43
2022-12-31T11:37:48.788Z,8.50
2022-12-31T11:40:27.337Z,8.53
2022-12-31T11:43:11.329Z,8.54
2022-12-31T11:46:08.001Z,8.57
2022-12-31T11:49:00.942Z,8.61
2022-12-31T11:51:48.444Z,8.65
2022-12-31T11:54:38.392Z,8.69
2022-12-31T11:57:32.645Z,8.72
2022-12-31T12:00:02.523Z,8.72
2022-12-31T12:02:34.854Z,8.72
2022-12-31T12:05:10.728Z,8.76
2022-12-31T12:07:38.039Z,8.81
2022-12-31T12:10:19.602Z,8.86
2022-12-31T12:12:46.290Z,8.89
2022-12-31T12:15:20.911Z,8.91
2022-12-31T12:17:52.755Z,8.94
2022-12-31T12:20:26.960Z,9.00
2022-12-31T12:22:56.410Z,9.09
2022-12-31T12:25:26.645Z,9.16
2022-12-31T12:27:54.251Z,9.20
2022-12-31T12:30:28.681Z,9.29
2022-12-31T12:32:57.070Z,9.35
2022-12-31T12:35:29.650Z,9.40
2022-12-31T12:38:06.003Z,9.41
2022-12-31T12:40:34.658Z,9.47
2022-12-31T12:43:02.925Z,9.46
2022-12-31T12:45:40.228Z,9.44
2022-12-31T12:48:26.544Z,9.42
2022-12-31T12:50:53.295Z,9.40
2022-12-31T12:53:41.667Z,9.37
2022-12-31T12:56:30.680Z,9.33
2022-12-31T12:59:19.640Z,9.26
2022-12-31T13:02:11.013Z,9.22
2022-12-31T13:04:50.655Z,9.21
2022-12-31T13:07:23.758Z,9.20
2022-12-31T13:09:59.592Z,9.21
2022-12-31T13:13:13.900Z,9.25
2022-12-31T13:15:49.455Z,9.27
2022-12-31T13:18:40.780Z,9.25
2022-12-31T13:21:32.591Z,9.23
2022-12-31T13:24:14.542Z,9.24
2022-12-31T13:26:54.848Z,9.34
2022-12-31T13:29:26.390Z,9.47
2022-12-31T13:31:57.010Z,9.52
2022-12-31T13:34:29.233Z,9.56
2022-12-31T13:36:59.614Z,9.63
2022-12-31T13:39:31.259Z,9.63
2022-12-31T13:42:25.757Z,9.65
2022-12-31T13:45:02.632Z,9.72
2022-12-31T13:47:39.365Z,9.76
2022-12-31T13:50:27.781Z,9.75
2022-12-31T13:52:58.563Z,9.75
2022-12-31T13:55:42.491Z,9.82
2022-12-31T13:58:31.668Z,9.88
2022-12-31T14:01:13.949Z,9.91
2022-12-31T14:03:49.435Z,9.92
2022-12-31T14:06:36.755Z,9.88
2022-12-31T14:09:04.854Z,9.77
2022-12-31T14:11:37.278Z,9.68
2022-12-31T14:14:19.930Z,9.61
2022-12-31T14:17:08.724Z,9.57
2022-12-31T14:20:02.947Z,9.54
2022-12-31T14:22:52.023Z,9.52
2022-12-31T14:25:27.841Z,9.51
2022-12-31T14:27:56.694Z,9.52
2022-12-31T14:30:30.908Z,9.54
2022-12-31T14:33:15.646Z,9.59
2022-12-31T14:36:20.412Z,9.62
2022-12-31T14:39:24.588Z,9.70
2022-12-31T14:42:02.887Z,9.82
2022-12-31T14:45:04.292Z,9.88
2022-12-31T14:47:59.740Z,9.89
2022-12-31T14:50:29.687Z,9.88
2022-12-31T14:53:17.800Z,9.85
2022-12-31T14:55:44.487Z,9.86
2022-12-31T14:58:35.142Z,9.89
2022-12-31T15:01:08.605Z,9.99
2022-12-31T15:03:44.714Z,9.98
2022-12-31T15:06:24.493Z,9.97
2022-12-31T15:09:12.995Z,9.97
2022-12-31T15:11:39.573Z,9.98
2022-12-31T15:14:37.938Z,9.98
2022-12-31T15:17:32.446Z,9.94
2022-12-31T15:20:26.434Z,9.84
2022-12-31T15:22:54.508Z,9.73
2022-12-31T15:25:40.116Z,9.62
2022-12-31T15:28:28.675Z,9.49
2022-12-31T15:31:03.743Z,9.38
2022-12-31T15:33:32.549Z,9.28
2022-12-31T15:36:21.364Z,9.17
2022-12-31T15:38:49.064Z,9.10
2022-12-31T15:41:19.811Z,9.06
2022-12-31T15:43:52.476Z,9.03
2022-12-31T15:46:24.183Z,9.02
2022-12-31T15:49:03.752Z,9.05
2022-12-31T15:51:54.179Z,9.05
2022-12-31T15:54:36.331Z,9.06
2022-12-31T15:57:09.218Z,9.04
2022-12-31T15:59:38.229Z,9.05
2022-12-31T16:02:17.891Z,9.07
2022-12-31T16:04:45.060Z,9.10
2022-12-31T16:07:12.624Z,9.12
2022-12-31T16:09:40.036Z,9.16
2022-12-31T16:12:16.025Z,9.18
2022-12-31T16:14:58.521Z,9.20
2022-12-31T16:17:36.755Z,9.22
2022-12-31T16:20:23.867Z,9.24
2022-12-31T16:22:57.645Z,9.23
2022-12-31T16:25:33.121Z,9.20
2022-12-31T16:28:03.063Z,9.15
2022-12-31T16:30:32.621Z,9.04
2022-12-31T16:33:03.170Z,8.99
2022-12-31T16:35:38.614Z,8.94
2022-12-31T16:38:08.051Z,8.92
2022-12-31T16:40:35.462Z,8.92
2022-12-31T16:43:02.206Z,8.88
2022-12-31T16:46:25.340Z,8.83
2022-12-31T16:49:14.309Z,8.75
2022-12-31T16:51:41.642Z,8.73
2022-12-31T16:54:19.628Z,8.74
2022-12-31T16:56:46.551Z,8.75
2022-12-31T16:59:29.327Z,8.76
2022-12-31T17:02:03.108Z,8.76
2022-12-31T17:04:30.110Z,8.75
2022-12-31T17:07:25.571Z,8.77
2022-12-31T17:10:07.735Z,8.77
2022-12-31T17:13:17.077Z,8.79
2022-12-31T17:15:29.881Z,8.80
2022-12-31T17:18:03.651Z,8.80
2022-12-31T17:20:33.547Z,8.80
2022-12-31T17:23:05.339Z,8.77
2022-12-31T17:25:34.316Z,8.76
2022-12-31T17:28:05.541Z,8.76
2022-12-31T17:30:35.302Z,8.74
2022-12-31T17:33:22.034Z,8.75
2022-12-31T17:35:54.411Z,8.74
2022-12-31T17:38:21.020Z,8.75
2022-12-31T17:40:53.639Z,8.75
2022-12-31T17:43:22.914Z,8.74
2022-12-31T17:45:54.473Z,8.70
2022-12-31T17:48:25.029Z,8.64
2022-12-31T17:50:57.074Z,8.54
2022-12-31T17:53:24.253Z,8.46
2022-12-31T17:55:57.192Z,8.43
2022-12-31T17:58:29.670Z,8.45
2022-12-31T18:00:58.005Z,8.45
2022-12-31T18:03:24.872Z,8.45
2022-12-31T18:05:51.507Z,8.44
2022-12-31T18:08:18.393Z,8.41
2022-12-31T18:10:45.608Z,8.36
2022-12-31T18:13:22.397Z,8.30
2022-12-31T18:15:49.587Z,8.24
2022-12-31T18:18:28.423Z,8.21
2022-12-31T18:20:58.702Z,8.21
2022-12-31T18:23:39.136Z,8.25
2022-12-31T18:26:06.110Z,8.27
2022-12-31T18:28:32.831Z,8.30
2022-12-31T18:30:59.760Z,8.31
2022-12-31T18:33:26.916Z,8.32
2022-12-31T18:36:10.437Z,8.33
2022-12-31T18:38:38.241Z,8.31
2022-12-31T18:41:05.643Z,8.30
2022-12-31T18:43:32.461Z,8.32
2022-12-31T18:46:00.001Z,8.33
2022-12-31T18:48:26.825Z,8.37
2022-12-31T18:50:53.688Z,8.38
2022-12-31T18:53:26.981Z,8.42
2022-12-31T18:55:56.162Z,8.43
2022-12-31T18:58:23.460Z,8.43
2022-12-31T19:00:51.621Z,8.46
2022-12-31T19:03:31.634Z,8.49
2022-12-31T19:05:58.326Z,8.49
2022-12-31T19:08:25.077Z,8.49
2022-12-31T19:10:52.774Z,8.50
2022-12-31T19:13:20.108Z,8.50
2022-12-31T19:15:51.905Z,8.47
2022-12-31T19:18:19.221Z,8.43
2022-12-31T19:20:46.453Z,8.37
2022-12-31T19:23:16.481Z,8.32
2022-12-31T19:25:43.182Z,8.29
2022-12-31T19:28:28.493Z,8.25
2022-12-31T19:30:55.395Z,8.21
2022-12-31T19:33:22.239Z,8.14
2022-12-31T19:35:49.321Z,8.11
2022-12-31T19:38:25.463Z,8.07
2022-12-31T19:40:53.900Z,8.04
2022-12-31T19:43:22.356Z,8.06
2022-12-31T19:45:50.998Z,8.09
2022-12-31T19:48:21.031Z,8.13
2022-12-31T19:50:50.669Z,8.14
2022-12-31T19:53:25.763Z,8.19
2022-12-31T19:55:52.918Z,8.20
2022-12-31T19:58:22.045Z,8.19
2022-12-31T20:00:54.817Z,8.20
2022-12-31T20:03:22.764Z,8.17
2022-12-31T20:05:49.707Z,8.13
2022-12-31T20:08:20.405Z,8.11
2022-12-31T20:10:47.127Z,8.09
2022-12-31T20:13:13.764Z,8.08
2022-12-31T20:15:47.730Z,8.05
2022-12-31T20:18:17.606Z,8.04
2022-12-31T20:20:51.653Z,8.02
2022-12-31T20:23:23.336Z,7.99
2022-12-31T20:25:57.888Z,7.97
2022-12-31T20:28:24.709Z,7.93
2022-12-31T20:30:51.692Z,7.92
2022-12-31T20:33:19.345Z,7.92
2022-12-31T20:35:46.694Z,7.90
2022-12-31T20:38:14.603Z,7.90
2022-12-31T20:40:46.409Z,7.91
2022-12-31T20:43:13.733Z,7.95
2022-12-31T20:45:41.755Z,8.00
2022-12-31T20:48:08.590Z,8.01
2022-12-31T20:50:37.521Z,8.02
2022-12-31T20:53:04.222Z,8.02
2022-12-31T20:55:32.301Z,8.02
2022-12-31T20:58:00.580Z,8.01
2022-12-31T21:00:27.206Z,8.01
2022-12-31T21:03:03.920Z,7.98
2022-12-31T21:05:33.481Z,7.94
2022-12-31T21:08:00.414Z,7.91
2022-12-31T21:10:27.017Z,7.89
2022-12-31T21:12:54.037Z,7.86
2022-12-31T21:15:21.683Z,7.83
2022-12-31T21:17:48.549Z,7.80
2022-12-31T21:20:15.340Z,7.80
2022-12-31T21:22:42.042Z,7.79
2022-12-31T21:25:10.558Z,7.77
2022-12-31T21:27:37.333Z,7.76
2022-12-31T21:30:20.394Z,7.75
2022-12-31T21:32:47.368Z,7.73
2022-12-31T21:35:42.299Z,7.72
2022-12-31T21:38:06.002Z,7.69
2022-12-31T21:40:33.044Z,7.69
2022-12-31T21:43:00.240Z,7.67
2022-12-31T21:45:27.083Z,7.66
2022-12-31T21:48:12.252Z,7.66
2022-12-31T21:50:39.260Z,7.66
2022-12-31T21:53:05.983Z,7.66
2022-12-31T21:55:51.252Z,7.67
2022-12-31T21:58:27.034Z,7.67
2022-12-31T22:01:13.985Z,7.65
2022-12-31T22:03:41.136Z,7.63
2022-12-31T22:06:20.723Z,7.64
2022-12-31T22:08:50.085Z,7.61
2022-12-31T22:11:18.468Z,7.60
2022-12-31T22:13:45.779Z,7.59
2022-12-31T22:16:15.460Z,7.58
2022-12-31T22:18:44.137Z,7.56
2022-12-31T22:21:19.010Z,7.57
2022-12-31T22:23:48.579Z,7.56
2022-12-31T22:26:17.106Z,7.55
2022-12-31T22:28:45.171Z,7.56
2022-12-31T22:31:21.678Z,7.53
2022-12-31T22:33:48.553Z,7.53
2022-12-31T22:36:18.264Z,7.50
2022-12-31T22:38:46.078Z,7.48
2022-12-31T22:41:18.947Z,7.47
2022-12-31T22:43:49.184Z,7.42
2022-12-31T22:46:17.209Z,7.40
2022-12-31T22:48:44.025Z,7.39
2022-12-31T22:51:11.639Z,7.37
2022-12-31T22:53:39.933Z,7.39
2022-12-31T22:56:07.536Z,7.40
2022-12-31T22:58:34.760Z,7.40
2022-12-31T23:01:08.652Z,7.42
2022-12-31T23:03:35.635Z,7.41
2022-12-31T23:06:02.395Z,7.42
2022-12-31T23:08:29.078Z,7.44
2022-12-31T23:11:02.512Z,7.48
2022-12-31T23:13:58.709Z,7.51
2022-12-31T23:16:46.720Z,7.54
2022-12-31T23:19:33.202Z,7.56
2022-12-31T23:22:18.989Z,7.57
2022-12-31T23:24:45.723Z,7.60
2022-12-31T23:27:12.365Z,7.60
2022-12-31T23:29:46.063Z,7.59
2022-12-31T23:32:17.597Z,7.58
2022-12-31T23:34:45.680Z,7.58
2022-12-31T23:37:13.600Z,7.58
2022-12-31T23:39:40.515Z,7.59
2022-12-31T23:42:07.294Z,7.59
2022-12-31T23:44:33.945Z,7.57
2022-12-31T23:47:00.812Z,7.55
2022-12-31T23:49:27.618Z,7.53
2022-12-31T23:51:54.200Z,7.52
2022-12-31T23:55:20.809Z,7.47
